Terminal Aerodrome Forecast
Issued by NWS

Home | Current Version | Previous Version | Text Only | Print | Product List | Glossary On
Versions: 1 2 3 4 5 6 7 8 9 10 11 12 13 14 15 16 17 18
000
FTUS46 KSEW 171720
TAFCLM
TAF
KCLM 171720Z 1718/1818 VRB04KT P6SM OVC050
     FM172100 09006KT P6SM -RA OVC040
      TEMPO 1722/1802 5SM RA BR OVC025
     FM180300 VRB04KT P6SM -SHRA BKN025 OVC050
     FM181700 VRB04KT P6SM VCSH BKN050=

USA.gov is the U.S. government's official web portal to all federal, state and local government web resources and services.